International Virtual Aviation Organisation

Russian Federation and Kazakhstan MCD

 

Карточка аэропорта URMT

Внимание!
Информация на этой странице в стадии наполнения.
Если вы не увидели какой-то информации, или заметили неточность - пожалуйста сообщите нам!
Спасибо!
Команда RU-STAFF
Название аэропортаСТАВРОПОЛЬ
Название аэропорта (англ.)STAVROPOL
Превышение453 ft. (138.1 m.)
Координаты45°6.666', 42°6.7619999999998'
Высота перехода900m
Эшелон переходаFL60
Коды ответчика
Зона ОрВДРостов-на-Дону РПИ (URRV)
Данные METARURMT 261500Z 30011MPS 9999 BKN020 04/00 Q1022 R25/150060 NOSIG RMK QFE728
Проноз погоды (TAF)NODATA
NOTAMshow/hide NOTAM
AWOS   TABLE

Информация о ВПП

ВПП Длина ВПП (м.) Покрытие Курс ВПП Частота ILS
072600Асфальтобетон68110.5
252600Асфальтобетон248110.7

Диспетчерские позиции

Позывной Наименование органа УВД Частота
URMT_TWRСтаврополь-Вышка120.9
URMT_APPСтаврополь-Подход121.050



Спутниковое изображение